sensor_id;sensor_type;location;lat;lon;timestamp;P1;durP1;ratioP1;P2;durP2;ratioP2
40971;SDS011;26701;47.408;19.174;2023-06-14T00:01:58;775.22;;;706.75;;
40971;SDS011;26701;47.408;19.174;2023-06-14T00:04:24;779.88;;;711.33;;
40971;SDS011;26701;47.408;19.174;2023-06-14T00:06:50;774.22;;;705.97;;
40971;SDS011;26701;47.408;19.174;2023-06-14T00:09:16;775.47;;;706.88;;
40971;SDS011;26701;47.408;19.174;2023-06-14T00:11:43;773.63;;;705.25;;
40971;SDS011;26701;47.408;19.174;2023-06-14T00:14:09;768.67;;;700.47;;
40971;SDS011;26701;47.408;19.174;2023-06-14T00:16:35;768.03;;;699.83;;
40971;SDS011;26701;47.408;19.174;2023-06-14T00:19:02;766.53;;;698.30;;
40971;SDS011;26701;47.408;19.174;2023-06-14T00:21:30;764.83;;;696.65;;
40971;SDS011;26701;47.408;19.174;2023-06-14T00:23:57;769.60;;;701.38;;
40971;SDS011;26701;47.408;19.174;2023-06-14T00:26:23;768.58;;;700.25;;
40971;SDS011;26701;47.408;19.174;2023-06-14T00:28:51;767.50;;;699.20;;
40971;SDS011;26701;47.408;19.174;2023-06-14T00:31:17;769.75;;;701.42;;
40971;SDS011;26701;47.408;19.174;2023-06-14T00:33:44;772.35;;;703.65;;
40971;SDS011;26701;47.408;19.174;2023-06-14T00:36:11;760.72;;;692.50;;
40971;SDS011;26701;47.408;19.174;2023-06-14T00:38:37;763.78;;;695.70;;
40971;SDS011;26701;47.408;19.174;2023-06-14T00:41:03;758.40;;;690.15;;
40971;SDS011;26701;47.408;19.174;2023-06-14T00:43:29;770.75;;;702.25;;
40971;SDS011;26701;47.408;19.174;2023-06-14T00:45:55;763.90;;;695.70;;
40971;SDS011;26701;47.408;19.174;2023-06-14T00:48:22;761.40;;;693.00;;
40971;SDS011;26701;47.408;19.174;2023-06-14T00:50:49;764.00;;;695.50;;
40971;SDS011;26701;47.408;19.174;2023-06-14T00:53:17;761.35;;;693.08;;
40971;SDS011;26701;47.408;19.174;2023-06-14T00:55:44;757.13;;;689.05;;
40971;SDS011;26701;47.408;19.174;2023-06-14T00:58:10;759.75;;;691.38;;
40971;SDS011;26701;47.408;19.174;2023-06-14T01:00:36;761.78;;;693.55;;
40971;SDS011;26701;47.408;19.174;2023-06-14T01:03:03;760.22;;;691.55;;
40971;SDS011;26701;47.408;19.174;2023-06-14T01:05:29;756.28;;;688.13;;
40971;SDS011;26701;47.408;19.174;2023-06-14T01:08:13;758.15;;;689.88;;
40971;SDS011;26701;47.408;19.174;2023-06-14T01:10:43;765.63;;;696.95;;
40971;SDS011;26701;47.408;19.174;2023-06-14T01:13:15;754.60;;;686.42;;
40971;SDS011;26701;47.408;19.174;2023-06-14T01:15:57;755.20;;;687.10;;
40971;SDS011;26701;47.408;19.174;2023-06-14T01:18:23;750.28;;;682.30;;
40971;SDS011;26701;47.408;19.174;2023-06-14T01:20:51;755.72;;;687.67;;
40971;SDS011;26701;47.408;19.174;2023-06-14T01:23:20;763.47;;;695.10;;
40971;SDS011;26701;47.408;19.174;2023-06-14T01:25:47;751.60;;;683.45;;
40971;SDS011;26701;47.408;19.174;2023-06-14T01:28:17;746.08;;;678.13;;
40971;SDS011;26701;47.408;19.174;2023-06-14T01:30:50;746.05;;;677.83;;
40971;SDS011;26701;47.408;19.174;2023-06-14T01:33:19;747.00;;;678.83;;
40971;SDS011;26701;47.408;19.174;2023-06-14T01:35:47;740.45;;;672.40;;
40971;SDS011;26701;47.408;19.174;2023-06-14T01:38:15;749.17;;;680.80;;
40971;SDS011;26701;47.408;19.174;2023-06-14T01:43:11;724.45;;;656.45;;
40971;SDS011;26701;47.408;19.174;2023-06-14T01:45:40;727.25;;;659.63;;
40971;SDS011;26701;47.408;19.174;2023-06-14T01:48:07;724.47;;;656.80;;
40971;SDS011;26701;47.408;19.174;2023-06-14T01:50:33;733.35;;;665.65;;
40971;SDS011;26701;47.408;19.174;2023-06-14T01:52:59;734.55;;;666.88;;
40971;SDS011;26701;47.408;19.174;2023-06-14T01:55:26;737.75;;;669.88;;
40971;SDS011;26701;47.408;19.174;2023-06-14T01:57:52;738.05;;;670.22;;
40971;SDS011;26701;47.408;19.174;2023-06-14T02:00:19;742.97;;;674.80;;
40971;SDS011;26701;47.408;19.174;2023-06-14T02:02:46;734.35;;;666.60;;
40971;SDS011;26701;47.408;19.174;2023-06-14T02:05:13;733.92;;;666.30;;
40971;SDS011;26701;47.408;19.174;2023-06-14T02:07:40;728.75;;;660.78;;
40971;SDS011;26701;47.408;19.174;2023-06-14T02:10:07;734.42;;;666.75;;
40971;SDS011;26701;47.408;19.174;2023-06-14T02:12:33;731.85;;;663.90;;
40971;SDS011;26701;47.408;19.174;2023-06-14T02:14:59;726.78;;;659.17;;
40971;SDS011;26701;47.408;19.174;2023-06-14T02:17:25;731.47;;;663.55;;
40971;SDS011;26701;47.408;19.174;2023-06-14T02:19:53;734.78;;;666.63;;
40971;SDS011;26701;47.408;19.174;2023-06-14T02:22:20;721.70;;;654.00;;
40971;SDS011;26701;47.408;19.174;2023-06-14T02:24:47;726.08;;;657.70;;
40971;SDS011;26701;47.408;19.174;2023-06-14T02:27:13;723.45;;;655.83;;
40971;SDS011;26701;47.408;19.174;2023-06-14T02:29:39;720.95;;;653.50;;
40971;SDS011;26701;47.408;19.174;2023-06-14T02:32:05;723.03;;;655.28;;
40971;SDS011;26701;47.408;19.174;2023-06-14T02:34:35;726.85;;;658.83;;
40971;SDS011;26701;47.408;19.174;2023-06-14T02:37:01;711.53;;;644.25;;
40971;SDS011;26701;47.408;19.174;2023-06-14T02:39:30;720.67;;;653.78;;
40971;SDS011;26701;47.408;19.174;2023-06-14T02:41:56;705.05;;;638.58;;
40971;SDS011;26701;47.408;19.174;2023-06-14T02:44:25;698.03;;;632.22;;
40971;SDS011;26701;47.408;19.174;2023-06-14T02:46:55;697.15;;;631.47;;
40971;SDS011;26701;47.408;19.174;2023-06-14T02:49:21;692.22;;;627.03;;
40971;SDS011;26701;47.408;19.174;2023-06-14T02:51:47;697.88;;;632.67;;
40971;SDS011;26701;47.408;19.174;2023-06-14T02:54:13;692.40;;;627.92;;
40971;SDS011;26701;47.408;19.174;2023-06-14T02:56:40;689.72;;;625.33;;
40971;SDS011;26701;47.408;19.174;2023-06-14T02:59:07;692.63;;;628.67;;
40971;SDS011;26701;47.408;19.174;2023-06-14T03:01:35;693.28;;;629.60;;
40971;SDS011;26701;47.408;19.174;2023-06-14T03:04:06;687.78;;;624.38;;
40971;SDS011;26701;47.408;19.174;2023-06-14T03:09:02;663.97;;;600.65;;
40971;SDS011;26701;47.408;19.174;2023-06-14T03:11:36;681.25;;;618.13;;
40971;SDS011;26701;47.408;19.174;2023-06-14T03:14:03;674.60;;;611.40;;
40971;SDS011;26701;47.408;19.174;2023-06-14T03:16:30;678.75;;;615.30;;
40971;SDS011;26701;47.408;19.174;2023-06-14T03:18:58;684.25;;;620.53;;
40971;SDS011;26701;47.408;19.174;2023-06-14T03:21:27;680.20;;;617.60;;
40971;SDS011;26701;47.408;19.174;2023-06-14T03:23:56;676.90;;;614.97;;
40971;SDS011;26701;47.408;19.174;2023-06-14T03:26:24;677.85;;;615.10;;
40971;SDS011;26701;47.408;19.174;2023-06-14T03:28:52;677.60;;;615.40;;
40971;SDS011;26701;47.408;19.174;2023-06-14T03:31:20;680.10;;;617.67;;
40971;SDS011;26701;47.408;19.174;2023-06-14T03:33:47;682.90;;;621.83;;
40971;SDS011;26701;47.408;19.174;2023-06-14T03:36:14;687.78;;;625.28;;
40971;SDS011;26701;47.408;19.174;2023-06-14T03:38:40;686.15;;;625.50;;
40971;SDS011;26701;47.408;19.174;2023-06-14T03:41:07;689.97;;;627.80;;
40971;SDS011;26701;47.408;19.174;2023-06-14T03:43:33;691.42;;;630.28;;
40971;SDS011;26701;47.408;19.174;2023-06-14T03:46:00;693.55;;;632.13;;
40971;SDS011;26701;47.408;19.174;2023-06-14T03:48:28;688.97;;;627.95;;
40971;SDS011;26701;47.408;19.174;2023-06-14T03:50:55;690.05;;;629.30;;
40971;SDS011;26701;47.408;19.174;2023-06-14T03:53:21;692.78;;;632.17;;
40971;SDS011;26701;47.408;19.174;2023-06-14T03:55:50;693.58;;;631.58;;
40971;SDS011;26701;47.408;19.174;2023-06-14T03:58:18;693.13;;;625.75;;
40971;SDS011;26701;47.408;19.174;2023-06-14T04:00:46;699.15;;;637.28;;
40971;SDS011;26701;47.408;19.174;2023-06-14T04:03:13;703.92;;;642.50;;
40971;SDS011;26701;47.408;19.174;2023-06-14T04:05:40;698.55;;;637.75;;
40971;SDS011;26701;47.408;19.174;2023-06-14T04:08:14;699.88;;;639.95;;
40971;SDS011;26701;47.408;19.174;2023-06-14T04:10:41;695.42;;;636.80;;
40971;SDS011;26701;47.408;19.174;2023-06-14T04:13:07;705.42;;;646.53;;
40971;SDS011;26701;47.408;19.174;2023-06-14T04:15:37;703.65;;;645.17;;
40971;SDS011;26701;47.408;19.174;2023-06-14T04:18:07;707.05;;;648.25;;
40971;SDS011;26701;47.408;19.174;2023-06-14T04:20:33;714.90;;;655.88;;
40971;SDS011;26701;47.408;19.174;2023-06-14T04:23:10;707.45;;;650.05;;
40971;SDS011;26701;47.408;19.174;2023-06-14T04:25:44;706.92;;;648.88;;
40971;SDS011;26701;47.408;19.174;2023-06-14T04:28:11;708.58;;;650.00;;
40971;SDS011;26701;47.408;19.174;2023-06-14T04:30:38;712.17;;;653.33;;
40971;SDS011;26701;47.408;19.174;2023-06-14T04:33:05;715.78;;;656.60;;
40971;SDS011;26701;47.408;19.174;2023-06-14T04:35:33;714.97;;;655.75;;
40971;SDS011;26701;47.408;19.174;2023-06-14T04:38:01;713.42;;;654.22;;
40971;SDS011;26701;47.408;19.174;2023-06-14T04:40:30;713.67;;;654.00;;
40971;SDS011;26701;47.408;19.174;2023-06-14T04:45:24;694.50;;;635.15;;
40971;SDS011;26701;47.408;19.174;2023-06-14T04:47:58;703.72;;;642.55;;
40971;SDS011;26701;47.408;19.174;2023-06-14T04:50:26;700.35;;;638.78;;
40971;SDS011;26701;47.408;19.174;2023-06-14T04:52:55;708.63;;;646.33;;
40971;SDS011;26701;47.408;19.174;2023-06-14T04:55:22;716.38;;;653.45;;
40971;SDS011;26701;47.408;19.174;2023-06-14T04:57:48;712.20;;;649.85;;
40971;SDS011;26701;47.408;19.174;2023-06-14T05:00:18;714.80;;;651.53;;
40971;SDS011;26701;47.408;19.174;2023-06-14T05:02:44;719.38;;;655.97;;
40971;SDS011;26701;47.408;19.174;2023-06-14T05:05:12;724.67;;;662.13;;
40971;SDS011;26701;47.408;19.174;2023-06-14T05:07:38;725.97;;;663.88;;
40971;SDS011;26701;47.408;19.174;2023-06-14T05:10:05;734.15;;;671.63;;
40971;SDS011;26701;47.408;19.174;2023-06-14T05:12:32;733.78;;;671.50;;
40971;SDS011;26701;47.408;19.174;2023-06-14T05:14:59;730.33;;;668.50;;
40971;SDS011;26701;47.408;19.174;2023-06-14T05:17:26;740.40;;;678.67;;
40971;SDS011;26701;47.408;19.174;2023-06-14T05:19:53;742.42;;;681.30;;
40971;SDS011;26701;47.408;19.174;2023-06-14T05:22:21;745.45;;;684.17;;
40971;SDS011;26701;47.408;19.174;2023-06-14T05:24:47;748.67;;;687.95;;
40971;SDS011;26701;47.408;19.174;2023-06-14T05:27:13;747.20;;;686.97;;
40971;SDS011;26701;47.408;19.174;2023-06-14T05:29:39;750.55;;;690.35;;
40971;SDS011;26701;47.408;19.174;2023-06-14T05:32:06;746.53;;;686.28;;
40971;SDS011;26701;47.408;19.174;2023-06-14T05:34:32;757.67;;;696.88;;
40971;SDS011;26701;47.408;19.174;2023-06-14T05:36:58;761.03;;;699.58;;
40971;SDS011;26701;47.408;19.174;2023-06-14T05:39:25;771.72;;;709.90;;
40971;SDS011;26701;47.408;19.174;2023-06-14T05:41:51;762.85;;;701.15;;
40971;SDS011;26701;47.408;19.174;2023-06-14T05:44:17;766.72;;;705.35;;
40971;SDS011;26701;47.408;19.174;2023-06-14T05:46:43;767.65;;;706.20;;
40971;SDS011;26701;47.408;19.174;2023-06-14T05:49:09;767.42;;;705.17;;
40971;SDS011;26701;47.408;19.174;2023-06-14T05:51:37;770.85;;;708.20;;
40971;SDS011;26701;47.408;19.174;2023-06-14T05:54:03;766.40;;;703.35;;
40971;SDS011;26701;47.408;19.174;2023-06-14T05:56:29;766.63;;;703.78;;
40971;SDS011;26701;47.408;19.174;2023-06-14T05:58:55;772.63;;;709.97;;
40971;SDS011;26701;47.408;19.174;2023-06-14T06:01:21;786.80;;;721.55;;
40971;SDS011;26701;47.408;19.174;2023-06-14T06:03:47;763.65;;;701.35;;
40971;SDS011;26701;47.408;19.174;2023-06-14T06:06:14;769.10;;;706.00;;
40971;SDS011;26701;47.408;19.174;2023-06-14T06:08:41;774.05;;;710.80;;
40971;SDS011;26701;47.408;19.174;2023-06-14T06:11:07;779.25;;;715.90;;
40971;SDS011;26701;47.408;19.174;2023-06-14T06:13:33;794.67;;;729.63;;
40971;SDS011;26701;47.408;19.174;2023-06-14T06:16:00;806.08;;;740.00;;
40971;SDS011;26701;47.408;19.174;2023-06-14T06:18:27;800.95;;;735.83;;
40971;SDS011;26701;47.408;19.174;2023-06-14T06:20:53;802.17;;;736.80;;
40971;SDS011;26701;47.408;19.174;2023-06-14T06:23:20;813.88;;;747.28;;
40971;SDS011;26701;47.408;19.174;2023-06-14T06:25:46;818.00;;;749.38;;
40971;SDS011;26701;47.408;19.174;2023-06-14T06:28:12;821.85;;;752.75;;
40971;SDS011;26701;47.408;19.174;2023-06-14T06:30:39;826.45;;;756.58;;
40971;SDS011;26701;47.408;19.174;2023-06-14T06:33:05;831.67;;;761.22;;
40971;SDS011;26701;47.408;19.174;2023-06-14T06:35:31;837.28;;;766.78;;
40971;SDS011;26701;47.408;19.174;2023-06-14T06:37:58;847.35;;;776.45;;
40971;SDS011;26701;47.408;19.174;2023-06-14T06:40:24;846.58;;;776.08;;
40971;SDS011;26701;47.408;19.174;2023-06-14T06:42:50;848.97;;;777.90;;
40971;SDS011;26701;47.408;19.174;2023-06-14T06:45:18;850.95;;;779.63;;
40971;SDS011;26701;47.408;19.174;2023-06-14T06:47:44;856.53;;;784.97;;
40971;SDS011;26701;47.408;19.174;2023-06-14T06:50:10;856.60;;;785.72;;
40971;SDS011;26701;47.408;19.174;2023-06-14T06:52:37;864.05;;;792.33;;
40971;SDS011;26701;47.408;19.174;2023-06-14T06:55:03;867.03;;;795.47;;
40971;SDS011;26701;47.408;19.174;2023-06-14T06:57:29;872.58;;;800.80;;
40971;SDS011;26701;47.408;19.174;2023-06-14T06:59:56;879.38;;;807.58;;
40971;SDS011;26701;47.408;19.174;2023-06-14T07:02:22;890.03;;;817.50;;
40971;SDS011;26701;47.408;19.174;2023-06-14T07:04:48;892.20;;;819.70;;
40971;SDS011;26701;47.408;19.174;2023-06-14T07:07:15;898.65;;;825.60;;
40971;SDS011;26701;47.408;19.174;2023-06-14T07:09:41;902.55;;;829.47;;
40971;SDS011;26701;47.408;19.174;2023-06-14T07:12:08;909.90;;;836.70;;
40971;SDS011;26701;47.408;19.174;2023-06-14T07:14:34;916.35;;;843.03;;
40971;SDS011;26701;47.408;19.174;2023-06-14T07:17:00;927.50;;;853.40;;
40971;SDS011;26701;47.408;19.174;2023-06-14T07:19:26;927.40;;;853.60;;
40971;SDS011;26701;47.408;19.174;2023-06-14T07:21:52;932.42;;;858.60;;
40971;SDS011;26701;47.408;19.174;2023-06-14T07:24:19;931.83;;;857.90;;
40971;SDS011;26701;47.408;19.174;2023-06-14T07:26:46;933.60;;;859.20;;
40971;SDS011;26701;47.408;19.174;2023-06-14T07:29:14;937.05;;;863.20;;
40971;SDS011;26701;47.408;19.174;2023-06-14T07:31:41;939.22;;;864.72;;
40971;SDS011;26701;47.408;19.174;2023-06-14T07:34:08;936.80;;;862.53;;
40971;SDS011;26701;47.408;19.174;2023-06-14T07:36:34;934.53;;;859.88;;
40971;SDS011;26701;47.408;19.174;2023-06-14T07:39:04;938.40;;;863.92;;
40971;SDS011;26701;47.408;19.174;2023-06-14T07:41:43;940.40;;;866.13;;
40971;SDS011;26701;47.408;19.174;2023-06-14T07:44:42;935.10;;;860.72;;
40971;SDS011;26701;47.408;19.174;2023-06-14T07:47:08;938.15;;;863.83;;
40971;SDS011;26701;47.408;19.174;2023-06-14T07:49:34;937.58;;;863.28;;
40971;SDS011;26701;47.408;19.174;2023-06-14T07:52:00;935.45;;;861.28;;
40971;SDS011;26701;47.408;19.174;2023-06-14T07:54:26;941.65;;;867.53;;
40971;SDS011;26701;47.408;19.174;2023-06-14T07:56:53;939.47;;;865.03;;
40971;SDS011;26701;47.408;19.174;2023-06-14T07:59:21;942.65;;;868.13;;
40971;SDS011;26701;47.408;19.174;2023-06-14T08:01:47;938.53;;;864.38;;
40971;SDS011;26701;47.408;19.174;2023-06-14T08:04:13;937.28;;;862.95;;
40971;SDS011;26701;47.408;19.174;2023-06-14T08:06:40;939.40;;;865.20;;
40971;SDS011;26701;47.408;19.174;2023-06-14T08:09:09;941.05;;;866.75;;
40971;SDS011;26701;47.408;19.174;2023-06-14T08:11:36;946.55;;;872.15;;
40971;SDS011;26701;47.408;19.174;2023-06-14T08:14:02;955.20;;;880.28;;
40971;SDS011;26701;47.408;19.174;2023-06-14T08:16:28;963.72;;;888.63;;
40971;SDS011;26701;47.408;19.174;2023-06-14T08:18:55;968.30;;;893.08;;
40971;SDS011;26701;47.408;19.174;2023-06-14T08:21:21;974.65;;;899.15;;
40971;SDS011;26701;47.408;19.174;2023-06-14T08:23:47;978.95;;;903.42;;
40971;SDS011;26701;47.408;19.174;2023-06-14T08:26:13;979.72;;;903.83;;
40971;SDS011;26701;47.408;19.174;2023-06-14T08:28:39;980.85;;;904.92;;
40971;SDS011;26701;47.408;19.174;2023-06-14T08:31:05;990.05;;;913.72;;
40971;SDS011;26701;47.408;19.174;2023-06-14T08:33:32;995.65;;;918.97;;
40971;SDS011;26701;47.408;19.174;2023-06-14T08:35:58;998.15;;;921.28;;
40971;SDS011;26701;47.408;19.174;2023-06-14T08:38:24;1004.25;;;927.20;;
40971;SDS011;26701;47.408;19.174;2023-06-14T08:40:50;1007.25;;;930.28;;
40971;SDS011;26701;47.408;19.174;2023-06-14T08:43:17;1019.75;;;941.88;;
40971;SDS011;26701;47.408;19.174;2023-06-14T08:45:43;1026.47;;;948.13;;
40971;SDS011;26701;47.408;19.174;2023-06-14T08:48:13;1016.65;;;939.22;;
40971;SDS011;26701;47.408;19.174;2023-06-14T08:53:08;1017.55;;;939.75;;
40971;SDS011;26701;47.408;19.174;2023-06-14T08:55:38;1016.78;;;939.38;;
40971;SDS011;26701;47.408;19.174;2023-06-14T08:58:04;1024.47;;;947.00;;
40971;SDS011;26701;47.408;19.174;2023-06-14T09:00:31;1029.72;;;951.35;;
40971;SDS011;26701;47.408;19.174;2023-06-14T09:02:58;1034.07;;;955.33;;
40971;SDS011;26701;47.408;19.174;2023-06-14T09:05:24;1026.35;;;948.65;;
40971;SDS011;26701;47.408;19.174;2023-06-14T09:07:51;1027.97;;;949.95;;
40971;SDS011;26701;47.408;19.174;2023-06-14T09:10:18;1031.10;;;952.63;;
40971;SDS011;26701;47.408;19.174;2023-06-14T09:12:44;1026.50;;;948.22;;
40971;SDS011;26701;47.408;19.174;2023-06-14T09:15:11;1032.32;;;953.88;;
40971;SDS011;26701;47.408;19.174;2023-06-14T09:17:37;1031.03;;;952.58;;
40971;SDS011;26701;47.408;19.174;2023-06-14T09:20:07;1024.80;;;946.45;;
40971;SDS011;26701;47.408;19.174;2023-06-14T09:22:35;1027.25;;;949.03;;
40971;SDS011;26701;47.408;19.174;2023-06-14T09:25:01;1019.47;;;942.17;;
40971;SDS011;26701;47.408;19.174;2023-06-14T09:27:28;1013.10;;;935.97;;
40971;SDS011;26701;47.408;19.174;2023-06-14T09:29:55;1012.85;;;935.80;;
40971;SDS011;26701;47.408;19.174;2023-06-14T09:32:21;1010.53;;;933.65;;
40971;SDS011;26701;47.408;19.174;2023-06-14T09:34:47;1010.05;;;932.95;;
40971;SDS011;26701;47.408;19.174;2023-06-14T09:37:25;1014.33;;;936.75;;
40971;SDS011;26701;47.408;19.174;2023-06-14T09:39:55;1006.38;;;929.00;;
40971;SDS011;26701;47.408;19.174;2023-06-14T09:42:21;1007.22;;;930.47;;
40971;SDS011;26701;47.408;19.174;2023-06-14T09:44:51;1005.65;;;929.03;;
40971;SDS011;26701;47.408;19.174;2023-06-14T09:47:18;1008.40;;;931.42;;
40971;SDS011;26701;47.408;19.174;2023-06-14T09:49:44;1006.83;;;929.78;;
40971;SDS011;26701;47.408;19.174;2023-06-14T09:52:12;1006.25;;;929.60;;
40971;SDS011;26701;47.408;19.174;2023-06-14T09:54:44;1009.90;;;932.90;;
40971;SDS011;26701;47.408;19.174;2023-06-14T09:57:12;1010.38;;;934.22;;
40971;SDS011;26701;47.408;19.174;2023-06-14T09:59:40;1023.15;;;946.58;;
40971;SDS011;26701;47.408;19.174;2023-06-14T10:02:27;1031.85;;;954.03;;
40971;SDS011;26701;47.408;19.174;2023-06-14T10:05:00;1045.05;;;966.17;;
40971;SDS011;26701;47.408;19.174;2023-06-14T10:07:32;1065.35;;;985.30;;
40971;SDS011;26701;47.408;19.174;2023-06-14T10:10:01;1089.90;;;999.90;;
40971;SDS011;26701;47.408;19.174;2023-06-14T10:12:27;1106.05;;;999.90;;
40971;SDS011;26701;47.408;19.174;2023-06-14T10:14:53;1122.80;;;999.90;;
40971;SDS011;26701;47.408;19.174;2023-06-14T10:17:27;1134.22;;;999.90;;
40971;SDS011;26701;47.408;19.174;2023-06-14T10:20:26;1141.47;;;999.90;;
40971;SDS011;26701;47.408;19.174;2023-06-14T10:22:48;1148.78;;;999.90;;
40971;SDS011;26701;47.408;19.174;2023-06-14T10:25:25;1141.50;;;999.90;;
40971;SDS011;26701;47.408;19.174;2023-06-14T10:28:01;1145.07;;;999.90;;
40971;SDS011;26701;47.408;19.174;2023-06-14T10:30:29;1156.07;;;999.90;;
40971;SDS011;26701;47.408;19.174;2023-06-14T10:33:05;1164.38;;;999.90;;
40971;SDS011;26701;47.408;19.174;2023-06-14T10:35:32;1169.93;;;999.90;;
40971;SDS011;26701;47.408;19.174;2023-06-14T10:38:11;1178.18;;;999.90;;
40971;SDS011;26701;47.408;19.174;2023-06-14T10:40:38;1184.40;;;999.90;;
40971;SDS011;26701;47.408;19.174;2023-06-14T10:43:23;1189.40;;;999.90;;
40971;SDS011;26701;47.408;19.174;2023-06-14T10:48:41;1207.88;;;999.90;;
40971;SDS011;26701;47.408;19.174;2023-06-14T10:51:19;1215.45;;;999.90;;
40971;SDS011;26701;47.408;19.174;2023-06-14T10:53:48;1220.35;;;999.90;;
40971;SDS011;26701;47.408;19.174;2023-06-14T10:56:32;1221.95;;;999.90;;
40971;SDS011;26701;47.408;19.174;2023-06-14T10:58:58;1228.22;;;999.90;;
40971;SDS011;26701;47.408;19.174;2023-06-14T11:04:07;1228.25;;;999.90;;
40971;SDS011;26701;47.408;19.174;2023-06-14T11:06:46;1235.50;;;999.90;;
40971;SDS011;26701;47.408;19.174;2023-06-14T11:09:21;1233.93;;;999.90;;
40971;SDS011;26701;47.408;19.174;2023-06-14T11:12:06;1232.05;;;999.90;;
40971;SDS011;26701;47.408;19.174;2023-06-14T11:14:37;1236.05;;;999.90;;
40971;SDS011;26701;47.408;19.174;2023-06-14T11:17:04;1230.07;;;999.90;;
40971;SDS011;26701;47.408;19.174;2023-06-14T11:19:30;1239.40;;;999.90;;
40971;SDS011;26701;47.408;19.174;2023-06-14T11:21:56;1243.38;;;999.90;;
40971;SDS011;26701;47.408;19.174;2023-06-14T11:24:23;1243.13;;;999.90;;
40971;SDS011;26701;47.408;19.174;2023-06-14T11:26:49;1238.63;;;999.90;;
40971;SDS011;26701;47.408;19.174;2023-06-14T11:29:16;1235.40;;;999.90;;
40971;SDS011;26701;47.408;19.174;2023-06-14T11:31:43;1232.75;;;999.90;;
40971;SDS011;26701;47.408;19.174;2023-06-14T11:34:12;1235.18;;;999.90;;
40971;SDS011;26701;47.408;19.174;2023-06-14T11:36:38;1243.47;;;999.90;;
40971;SDS011;26701;47.408;19.174;2023-06-14T11:39:05;1245.13;;;999.90;;
40971;SDS011;26701;47.408;19.174;2023-06-14T11:41:42;1244.20;;;999.90;;
40971;SDS011;26701;47.408;19.174;2023-06-14T11:44:09;1247.35;;;999.90;;
40971;SDS011;26701;47.408;19.174;2023-06-14T11:46:36;1241.78;;;999.90;;
40971;SDS011;26701;47.408;19.174;2023-06-14T11:49:03;1250.32;;;999.90;;
40971;SDS011;26701;47.408;19.174;2023-06-14T11:51:32;1244.15;;;999.90;;
40971;SDS011;26701;47.408;19.174;2023-06-14T11:53:59;1239.90;;;999.90;;
40971;SDS011;26701;47.408;19.174;2023-06-14T11:56:30;1240.45;;;999.90;;
40971;SDS011;26701;47.408;19.174;2023-06-14T11:58:57;1242.85;;;999.90;;
40971;SDS011;26701;47.408;19.174;2023-06-14T12:01:23;1249.25;;;999.90;;
40971;SDS011;26701;47.408;19.174;2023-06-14T12:03:51;1249.20;;;999.90;;
40971;SDS011;26701;47.408;19.174;2023-06-14T12:06:25;1258.55;;;999.90;;
40971;SDS011;26701;47.408;19.174;2023-06-14T12:08:55;1270.90;;;999.90;;
40971;SDS011;26701;47.408;19.174;2023-06-14T12:13:47;1277.38;;;999.90;;
40971;SDS011;26701;47.408;19.174;2023-06-14T12:16:14;1280.25;;;999.90;;
40971;SDS011;26701;47.408;19.174;2023-06-14T12:18:40;1280.60;;;999.90;;
40971;SDS011;26701;47.408;19.174;2023-06-14T12:21:08;1286.72;;;999.90;;
40971;SDS011;26701;47.408;19.174;2023-06-14T12:23:53;1287.20;;;999.90;;
40971;SDS011;26701;47.408;19.174;2023-06-14T12:26:19;1300.25;;;999.90;;
40971;SDS011;26701;47.408;19.174;2023-06-14T12:28:46;1289.43;;;999.90;;
40971;SDS011;26701;47.408;19.174;2023-06-14T12:31:13;1291.72;;;999.90;;
40971;SDS011;26701;47.408;19.174;2023-06-14T12:33:40;1288.85;;;999.90;;
40971;SDS011;26701;47.408;19.174;2023-06-14T12:36:07;1283.75;;;999.90;;
40971;SDS011;26701;47.408;19.174;2023-06-14T12:38:33;1287.88;;;999.90;;
40971;SDS011;26701;47.408;19.174;2023-06-14T12:41:00;1271.20;;;999.90;;
40971;SDS011;26701;47.408;19.174;2023-06-14T12:43:26;1254.82;;;999.90;;
40971;SDS011;26701;47.408;19.174;2023-06-14T12:45:53;1238.55;;;999.90;;
40971;SDS011;26701;47.408;19.174;2023-06-14T12:48:19;1228.68;;;999.90;;
40971;SDS011;26701;47.408;19.174;2023-06-14T12:50:45;1225.47;;;999.90;;
40971;SDS011;26701;47.408;19.174;2023-06-14T12:53:12;1230.32;;;999.90;;
40971;SDS011;26701;47.408;19.174;2023-06-14T12:55:38;1240.53;;;999.90;;
40971;SDS011;26701;47.408;19.174;2023-06-14T12:58:04;1250.97;;;999.90;;
40971;SDS011;26701;47.408;19.174;2023-06-14T13:00:33;1253.15;;;999.90;;
40971;SDS011;26701;47.408;19.174;2023-06-14T13:02:59;1249.80;;;999.90;;
40971;SDS011;26701;47.408;19.174;2023-06-14T13:05:26;1242.93;;;999.90;;
40971;SDS011;26701;47.408;19.174;2023-06-14T13:07:52;1239.00;;;999.90;;
40971;SDS011;26701;47.408;19.174;2023-06-14T13:10:18;1231.22;;;999.90;;
40971;SDS011;26701;47.408;19.174;2023-06-14T13:12:44;1218.43;;;999.90;;
40971;SDS011;26701;47.408;19.174;2023-06-14T13:15:10;1220.13;;;999.90;;
40971;SDS011;26701;47.408;19.174;2023-06-14T13:17:37;1227.53;;;999.90;;
40971;SDS011;26701;47.408;19.174;2023-06-14T13:20:07;1227.65;;;999.90;;
40971;SDS011;26701;47.408;19.174;2023-06-14T13:22:36;1219.80;;;999.90;;
40971;SDS011;26701;47.408;19.174;2023-06-14T13:25:03;1209.53;;;999.90;;
40971;SDS011;26701;47.408;19.174;2023-06-14T13:27:29;1205.45;;;999.90;;
40971;SDS011;26701;47.408;19.174;2023-06-14T13:29:55;1200.50;;;999.90;;
40971;SDS011;26701;47.408;19.174;2023-06-14T13:32:21;1191.13;;;999.90;;
40971;SDS011;26701;47.408;19.174;2023-06-14T13:34:48;1185.72;;;999.90;;
40971;SDS011;26701;47.408;19.174;2023-06-14T13:37:14;1183.90;;;999.90;;
40971;SDS011;26701;47.408;19.174;2023-06-14T13:39:40;1182.68;;;999.90;;
40971;SDS011;26701;47.408;19.174;2023-06-14T13:42:07;1183.43;;;999.90;;
40971;SDS011;26701;47.408;19.174;2023-06-14T13:44:32;1186.88;;;999.90;;
40971;SDS011;26701;47.408;19.174;2023-06-14T13:46:59;1186.85;;;999.90;;
40971;SDS011;26701;47.408;19.174;2023-06-14T13:49:25;1182.75;;;999.90;;
40971;SDS011;26701;47.408;19.174;2023-06-14T13:51:52;1171.53;;;999.90;;
40971;SDS011;26701;47.408;19.174;2023-06-14T13:54:19;1171.13;;;999.90;;
40971;SDS011;26701;47.408;19.174;2023-06-14T13:56:46;1163.97;;;999.90;;
40971;SDS011;26701;47.408;19.174;2023-06-14T13:59:12;1168.72;;;999.90;;
40971;SDS011;26701;47.408;19.174;2023-06-14T14:01:38;1159.80;;;999.90;;
40971;SDS011;26701;47.408;19.174;2023-06-14T14:04:04;1157.75;;;999.90;;